Time;durP1;ratioP1;P1;durP2;ratioP2;P2;SDS_P1;SDS_P2;PMS_P1;PMS_P2;Temp;Humidity;BMP_temperature;BMP_pressure;BME280_temperature;BME280_humidity;BME280_pressure;Samples;Min_cycle;Max_cycle;Signal;HPM_P1;HPM_P2
2022/03/01 00:02:18;;;;;;;6.03;5.63;;;;;;;;;;5017022;28;20412;-80
2022/03/01 00:04:44;;;;;;;6.10;5.70;;;;;;;;;;5026332;28;20400;-80
2022/03/01 00:07:10;;;;;;;7.97;6.40;;;;;;;;;;5025631;28;20728;-81
2022/03/01 00:09:37;;;;;;;5.83;5.43;;;;;;;;;;5025097;28;20442;-81
2022/03/01 00:12:03;;;;;;;7.03;6.33;;;;;;;;;;5024892;28;20418;-81
2022/03/01 00:14:30;;;;;;;6.80;6.30;;;;;;;;;;5026588;28;20939;-81
2022/03/01 00:16:55;;;;;;;8.00;6.38;;;;;;;;;;5023267;28;20192;-81
2022/03/01 00:19:22;;;;;;;6.20;5.60;;;;;;;;;;5026999;28;20189;-81
2022/03/01 00:21:48;;;;;;;11.90;6.80;;;;;;;;;;5024733;28;20529;-81
2022/03/01 00:24:14;;;;;;;9.43;6.73;;;;;;;;;;5028488;28;20454;-81
2022/03/01 00:26:40;;;;;;;8.03;6.53;;;;;;;;;;5029093;28;20435;-81
2022/03/01 00:29:06;;;;;;;10.27;8.30;;;;;;;;;;5026191;28;20558;-81
2022/03/01 00:31:32;;;;;;;6.97;6.40;;;;;;;;;;5029570;28;20403;-81
2022/03/01 00:33:58;;;;;;;6.93;6.40;;;;;;;;;;5024341;28;20548;-81
2022/03/01 00:36:24;;;;;;;7.47;6.40;;;;;;;;;;5024325;28;20229;-80
2022/03/01 00:38:50;;;;;;;7.20;6.60;;;;;;;;;;5026006;28;20682;-81
2022/03/01 00:41:16;;;;;;;8.90;8.00;;;;;;;;;;4995193;28;20472;-80
2022/03/01 00:43:42;;;;;;;7.45;6.72;;;;;;;;;;4985265;28;20432;-81
2022/03/01 00:46:08;;;;;;;6.93;6.33;;;;;;;;;;5004722;28;20597;-80
2022/03/01 00:48:34;;;;;;;6.70;6.27;;;;;;;;;;5007921;28;20469;-81
2022/03/01 00:51:00;;;;;;;7.40;6.77;;;;;;;;;;5005283;28;20445;-80
2022/03/01 00:53:26;;;;;;;7.72;6.68;;;;;;;;;;5010867;28;20966;-80
2022/03/01 00:55:52;;;;;;;8.25;7.55;;;;;;;;;;5009362;28;20184;-81
2022/03/01 00:58:18;;;;;;;6.93;6.50;;;;;;;;;;5012027;28;20686;-81
2022/03/01 01:00:44;;;;;;;6.60;5.90;;;;;;;;;;5011127;28;20443;-80
2022/03/01 01:03:10;;;;;;;7.75;6.97;;;;;;;;;;5014710;28;20405;-81
2022/03/01 01:05:36;;;;;;;8.23;7.40;;;;;;;;;;5000076;28;20207;-81
2022/03/01 01:08:02;;;;;;;8.07;7.27;;;;;;;;;;5018636;28;20441;-82
2022/03/01 01:10:28;;;;;;;8.60;6.70;;;;;;;;;;5003965;28;20451;-81
2022/03/01 01:12:54;;;;;;;9.35;7.38;;;;;;;;;;5020666;28;20477;-81
2022/03/01 01:15:21;;;;;;;8.97;8.10;;;;;;;;;;5019248;28;20189;-80
2022/03/01 01:17:47;;;;;;;7.85;7.07;;;;;;;;;;5013539;28;20412;-81
2022/03/01 01:20:14;;;;;;;7.27;6.40;;;;;;;;;;5004758;28;20672;-80
2022/03/01 01:22:40;;;;;;;6.77;6.30;;;;;;;;;;5006303;28;20541;-81
2022/03/01 01:25:17;;;;;;;9.35;7.30;;;;;;;;;;5004346;28;20421;-80
2022/03/01 01:27:44;;;;;;;8.50;7.70;;;;;;;;;;5006461;28;20219;-80
2022/03/01 01:30:11;;;;;;;8.95;6.68;;;;;;;;;;5003644;28;20451;-80
2022/03/01 01:32:37;;;;;;;9.93;7.87;;;;;;;;;;5018519;28;20650;-80
2022/03/01 01:35:04;;;;;;;9.23;7.47;;;;;;;;;;5004031;28;20802;-80
2022/03/01 01:37:30;;;;;;;8.18;7.47;;;;;;;;;;5006630;28;20193;-81
2022/03/01 01:39:56;;;;;;;8.25;7.47;;;;;;;;;;5012336;28;20223;-80
2022/03/01 01:42:22;;;;;;;7.23;6.63;;;;;;;;;;5024883;28;20176;-80
2022/03/01 01:44:48;;;;;;;10.38;8.00;;;;;;;;;;5036768;28;20433;-80
2022/03/01 01:47:14;;;;;;;7.13;6.43;;;;;;;;;;5027150;28;20261;-81
2022/03/01 01:49:40;;;;;;;6.70;6.10;;;;;;;;;;5029081;28;20467;-81
2022/03/01 01:52:06;;;;;;;8.17;7.37;;;;;;;;;;5027634;28;20442;-80
2022/03/01 01:54:32;;;;;;;8.53;7.63;;;;;;;;;;5043460;28;20405;-80
2022/03/01 01:56:58;;;;;;;8.60;7.40;;;;;;;;;;5025145;28;20517;-80
2022/03/01 01:59:24;;;;;;;9.43;7.97;;;;;;;;;;5027822;28;20439;-80
2022/03/01 02:01:50;;;;;;;10.63;9.03;;;;;;;;;;5030460;28;20438;-80
2022/03/01 02:04:16;;;;;;;8.80;7.90;;;;;;;;;;5017613;28;20420;-80
2022/03/01 02:07:01;;;;;;;10.83;7.80;;;;;;;;;;5027213;28;20254;-80
2022/03/01 02:09:26;;;;;;;8.45;6.95;;;;;;;;;;5024178;28;20437;-80
2022/03/01 02:11:53;;;;;;;7.63;6.93;;;;;;;;;;5030134;28;20298;-80
2022/03/01 02:14:19;;;;;;;10.77;7.53;;;;;;;;;;5029191;28;20488;-80
2022/03/01 02:16:44;;;;;;;8.93;8.02;;;;;;;;;;5031422;28;20473;-80
2022/03/01 02:19:14;;;;;;;8.47;6.73;;;;;;;;;;5028964;28;20653;-80
2022/03/01 02:21:47;;;;;;;7.83;6.87;;;;;;;;;;5029834;28;20433;-80
2022/03/01 02:24:13;;;;;;;7.53;6.82;;;;;;;;;;5029319;28;20412;-80
2022/03/01 02:26:39;;;;;;;8.20;7.40;;;;;;;;;;5026468;28;20199;-80
2022/03/01 02:29:05;;;;;;;9.68;7.35;;;;;;;;;;5028296;28;20441;-81
2022/03/01 02:31:31;;;;;;;8.18;7.47;;;;;;;;;;5036574;28;20199;-80
2022/03/01 02:33:57;;;;;;;7.53;6.90;;;;;;;;;;5028273;28;20180;-80
2022/03/01 02:36:24;;;;;;;8.90;8.00;;;;;;;;;;5036047;28;21005;-80
2022/03/01 02:38:50;;;;;;;7.87;7.10;;;;;;;;;;5029294;28;20445;-80
2022/03/01 02:41:16;;;;;;;7.73;7.07;;;;;;;;;;5028017;28;20431;-81
2022/03/01 02:43:42;;;;;;;9.10;7.50;;;;;;;;;;5034660;28;20434;-80
2022/03/01 02:46:08;;;;;;;9.20;6.87;;;;;;;;;;5028500;28;20971;-80
2022/03/01 02:48:34;;;;;;;7.50;6.70;;;;;;;;;;5032343;28;20455;-80
2022/03/01 02:51:00;;;;;;;7.43;6.75;;;;;;;;;;5028771;28;20393;-80
2022/03/01 02:53:26;;;;;;;9.50;7.23;;;;;;;;;;5030608;28;20192;-80
2022/03/01 02:55:51;;;;;;;7.43;6.70;;;4.00;99.90;;;;;;5027985;28;20415;-79
2022/03/01 02:58:17;;;;;;;8.13;7.23;;;4.20;99.90;;;;;;5031210;28;20453;-80
2022/03/01 03:00:44;;;;;;;9.00;8.00;;;4.10;99.90;;;;;;5016314;28;20264;-80
2022/03/01 03:03:11;;;;;;;8.23;7.10;;;4.20;99.90;;;;;;5031463;28;20187;-80
2022/03/01 03:05:37;;;;;;;7.53;6.93;;;4.80;99.90;;;;;;5027376;28;20193;-80
2022/03/01 03:08:03;;;;;;;8.10;7.40;;;4.10;99.90;;;;;;5023940;28;20216;-80
2022/03/01 03:10:29;;;;;;;8.00;7.07;;;4.60;99.90;;;;;;5027623;28;20947;-80
2022/03/01 03:12:54;;;;;;;9.23;8.00;;;4.30;99.90;;;;;;5028271;28;20431;-80
2022/03/01 03:15:20;;;;;;;9.70;7.50;;;4.30;99.90;;;;;;5035798;28;20184;-80
2022/03/01 03:17:46;;;;;;;7.67;7.10;;;4.30;99.90;;;;;;5025324;28;20203;-80
2022/03/01 03:20:11;;;;;;;7.70;7.10;;;4.30;99.90;;;;;;5027728;28;20430;-80
2022/03/01 03:22:37;;;;;;;5.30;4.90;;;4.30;99.90;;;;;;5025359;28;20389;-81
2022/03/01 03:25:04;;;;;;;6.90;6.30;;;4.70;99.70;;;;;;5027584;28;20251;-80
2022/03/01 03:27:29;;;;;;;10.93;7.73;;;5.00;99.90;;;;;;5035504;28;20239;-80
2022/03/01 03:29:55;;;;;;;7.87;7.10;;;5.00;98.70;;;;;;5025410;28;20466;-81
2022/03/01 03:32:20;;;;;;;7.50;6.80;;;5.10;98.30;;;;;;5026983;28;20215;-80
2022/03/01 03:34:46;;;;;;;7.63;6.83;;;5.30;96.90;;;;;;5025528;28;20239;-81
2022/03/01 03:37:12;;;;;;;6.50;5.90;;;4.60;96.40;;;;;;5027331;28;20314;-80
2022/03/01 03:39:38;;;;;;;7.40;6.80;;;5.40;96.20;;;;;;5024840;28;20822;-80
2022/03/01 03:42:04;;;;;;;7.93;7.10;;;5.40;95.50;;;;;;5027286;28;20422;-80
2022/03/01 03:44:29;;;;;;;7.73;6.53;;;5.80;95.70;;;;;;5023245;28;20278;-80
2022/03/01 03:46:55;;;;;;;8.03;7.43;;;5.40;95.20;;;;;;5026615;28;20290;-81
2022/03/01 03:49:22;;;;;;;7.70;7.00;;;5.50;95.40;;;;;;5028303;28;20194;-80
2022/03/01 03:51:48;;;;;;;7.60;6.73;;;5.40;95.00;;;;;;5025065;28;20283;-80
2022/03/01 03:54:13;;;;;;;7.33;6.73;;;5.40;95.30;;;;;;5025431;28;20413;-80
2022/03/01 03:56:39;;;;;;;9.20;8.40;;;5.40;94.70;;;;;;5025026;28;20446;-79
2022/03/01 03:59:07;;;;;;;10.27;7.00;;;5.40;94.10;;;;;;5030112;28;20339;-79
2022/03/01 04:01:34;;;;;;;7.37;6.67;;;5.40;94.20;;;;;;5026851;28;20222;-80
2022/03/01 04:04:00;;;;;;;6.60;6.10;;;5.50;94.30;;;;;;5024978;28;20429;-79
2022/03/01 04:06:27;;;;;;;7.87;7.07;;;5.40;94.10;;;;;;5041017;28;20408;-80
2022/03/01 04:08:52;;;;;;;9.30;7.77;;;5.40;94.10;;;;;;5030601;28;20470;-80
2022/03/01 04:11:18;;;;;;;7.73;7.03;;;5.40;94.00;;;;;;5026674;28;20434;-79
2022/03/01 04:13:44;;;;;;;9.73;6.70;;;5.40;93.80;;;;;;5024765;28;20203;-81
2022/03/01 04:16:09;;;;;;;8.13;7.40;;;5.40;94.00;;;;;;5026498;28;20799;-81
2022/03/01 04:18:35;;;;;;;8.93;8.10;;;5.40;93.70;;;;;;5029289;28;20246;-80
2022/03/01 04:21:01;;;;;;;8.53;7.73;;;5.50;93.40;;;;;;5031847;28;20662;-81
2022/03/01 04:23:27;;;;;;;7.80;7.10;;;5.50;93.20;;;;;;5024454;28;20192;-82
2022/03/01 04:25:53;;;;;;;8.10;7.40;;;5.50;93.20;;;;;;5025760;28;20226;-80
2022/03/01 04:28:19;;;;;;;8.37;7.50;;;5.50;93.60;;;;;;5036025;28;20207;-81
2022/03/01 04:30:45;;;;;;;10.07;7.40;;;5.60;93.50;;;;;;5026191;28;20472;-80
2022/03/01 04:33:11;;;;;;;8.10;7.20;;;5.50;93.70;;;;;;5030958;28;20191;-80
2022/03/01 04:35:36;;;;;;;8.13;7.53;;;5.50;93.00;;;;;;5027719;28;20180;-81
2022/03/01 04:38:03;;;;;;;8.57;7.30;;;5.50;93.20;;;;;;5028841;28;20187;-80
2022/03/01 04:40:29;;;;;;;9.00;7.77;;;5.40;93.30;;;;;;5025987;28;20298;-80
2022/03/01 04:42:54;;;;;;;7.97;7.17;;;5.40;93.80;;;;;;5023705;28;20868;-80
2022/03/01 04:45:20;;;;;;;8.57;7.90;;;5.40;94.40;;;;;;5024600;28;20988;-80
2022/03/01 04:47:46;;;;;;;8.73;8.00;;;5.30;95.10;;;;;;5035598;28;20224;-79
2022/03/01 04:50:12;;;;;;;8.70;7.80;;;5.30;95.10;;;;;;5026365;28;20176;-80
2022/03/01 04:52:38;;;;;;;9.07;8.10;;;4.90;94.50;;;;;;5033019;28;20584;-79
2022/03/01 04:55:04;;;;;;;8.20;7.40;;;5.20;94.90;;;;;;5027849;28;20502;-80
2022/03/01 04:57:30;;;;;;;8.02;7.20;;;5.10;95.50;;;;;;5033402;28;20773;-81
2022/03/01 04:59:55;;;;;;;7.40;6.70;;;5.10;94.80;;;;;;5030581;28;20171;-80
2022/03/01 05:02:21;;;;;;;8.13;7.33;;;5.00;95.90;;;;;;5024615;28;20195;-81
2022/03/01 05:04:46;;;;;;;11.00;7.57;;;4.90;96.40;;;;;;5038602;28;20222;-80
2022/03/01 05:07:12;;;;;;;7.50;6.77;;;4.90;96.70;;;;;;5034710;28;20286;-80
2022/03/01 05:09:38;;;;;;;8.40;7.70;;;4.80;96.30;;;;;;5078163;23;20180;-84
2022/03/01 05:12:04;;;;;;;8.90;8.00;;;4.80;96.50;;;;;;5026768;28;20674;-84
2022/03/01 05:14:29;;;;;;;8.90;8.00;;;4.90;97.10;;;;;;5008431;28;20211;-84
2022/03/01 05:16:55;;;;;;;7.73;7.03;;;6.40;97.20;;;;;;5027138;28;20425;-84
2022/03/01 05:19:20;;;;;;;8.80;7.30;;;7.40;96.70;;;;;;5008943;28;20230;-85
2022/03/01 05:21:46;;;;;;;9.20;7.83;;;4.90;94.70;;;;;;5031089;28;20227;-85
2022/03/01 05:24:12;;;;;;;8.30;7.60;;;5.00;96.30;;;;;;4677640;28;9999898;-84
2022/03/01 05:26:38;;;;;;;8.93;8.03;;;4.90;95.90;;;;;;5027583;28;20218;-84
2022/03/01 05:29:04;;;;;;;8.47;7.50;;;6.20;96.90;;;;;;5026272;28;20218;-84
2022/03/01 05:31:30;;;;;;;10.97;7.93;;;4.90;98.00;;;;;;5027105;28;20401;-85
2022/03/01 05:33:55;;;;;;;9.93;8.53;;;4.80;97.00;;;;;;5025497;28;20428;-85
2022/03/01 05:36:21;;;;;;;8.97;7.70;;;4.80;96.90;;;;;;5009327;28;20434;-85
2022/03/01 05:38:47;;;;;;;9.80;8.80;;;7.40;99.90;;;;;;5007081;28;20318;-85
2022/03/01 05:41:12;;;;;;;8.13;7.33;;;4.80;98.80;;;;;;5027323;28;20203;-85
2022/03/01 05:43:38;;;;;;;10.13;8.13;;;4.90;98.80;;;;;;5007484;28;20195;-85
2022/03/01 05:46:07;;;;;;;8.27;7.47;;;5.20;98.20;;;;;;5027638;28;20195;-85
2022/03/01 05:48:32;;;;;;;9.07;8.27;;;4.90;97.70;;;;;;5025307;28;20219;-82
2022/03/01 05:50:58;;;;;;;9.50;8.50;;;4.50;97.50;;;;;;5009187;28;20642;-84
2022/03/01 05:53:27;;;;;;;12.10;8.30;;;4.80;97.80;;;;;;5010224;28;20195;-82
2022/03/01 05:55:53;;;;;;;10.10;7.95;;;4.80;96.40;;;;;;5026382;28;20241;-85
2022/03/01 05:58:18;;;;;;;8.83;8.00;;;4.80;96.10;;;;;;5027281;28;20192;-80
2022/03/01 06:00:44;;;;;;;12.00;9.00;;;4.70;97.40;;;;;;5007153;28;20290;-79
2022/03/01 06:03:10;;;;;;;7.97;7.27;;;4.90;97.00;;;;;;5009295;28;20654;-84
2022/03/01 06:05:36;;;;;;;11.47;7.43;;;4.80;97.20;;;;;;5008298;28;20449;-84
2022/03/01 06:08:03;;;;;;;8.23;7.50;;;4.80;97.20;;;;;;5026690;28;20281;-84
2022/03/01 06:10:28;;;;;;;9.65;8.65;;;7.40;98.40;;;;;;5027421;28;20220;-83
2022/03/01 06:12:55;;;;;;;8.20;7.40;;;4.80;97.30;;;;;;5029868;28;20289;-84
2022/03/01 06:15:21;;;;;;;15.70;10.37;;;4.10;97.60;;;;;;5023735;28;20202;-84
2022/03/01 06:17:47;;;;;;;9.63;8.70;;;4.80;98.60;;;;;;5025756;28;20404;-84
2022/03/01 06:20:13;;;;;;;7.87;7.07;;;4.50;96.10;;;;;;5020819;28;20501;-83
2022/03/01 06:22:40;;;;;;;10.90;8.50;;;4.90;95.60;;;;;;5022414;28;20385;-84
2022/03/01 06:25:07;;;;;;;7.78;7.05;;;4.90;96.50;;;;;;5024798;28;20550;-84
2022/03/01 06:27:37;;;;;;;10.67;7.23;;;5.00;97.70;;;;;;5029860;28;20674;-85
2022/03/01 06:30:04;;;;;;;9.77;8.73;;;6.60;98.30;;;;;;5018343;28;20642;-84
2022/03/01 06:32:33;;;;;;;8.70;7.77;;;5.40;96.70;;;;;;5029170;28;20398;-82
2022/03/01 06:34:59;;;;;;;9.17;7.97;;;5.80;96.40;;;;;;5026188;28;20796;-84
2022/03/01 06:37:30;;;;;;;11.97;9.07;;;7.30;97.50;;;;;;5018089;28;20422;-84
2022/03/01 06:39:58;;;;;;;12.47;8.47;;;5.50;97.30;;;;;;5022123;28;20218;-81
2022/03/01 06:42:24;;;;;;;9.57;8.47;;;4.90;97.60;;;;;;5028732;28;20908;-83
2022/03/01 06:44:49;;;;;;;9.30;8.27;;;4.90;95.80;;;;;;5024912;28;20499;-83
2022/03/01 06:47:15;;;;;;;14.30;9.30;;;4.50;95.20;;;;;;5025507;28;20581;-83
2022/03/01 06:49:41;;;;;;;8.90;7.93;;;4.60;94.30;;;;;;5028575;28;20549;-80
2022/03/01 06:52:06;;;;;;;8.53;7.80;;;5.30;94.50;;;;;;5025178;28;20194;-83
2022/03/01 06:54:32;;;;;;;9.73;7.80;;;5.30;94.20;;;;;;5029494;28;20175;-83
2022/03/01 06:56:58;;;;;;;10.83;7.70;;;5.40;94.00;;;;;;5026516;28;20489;-83
2022/03/01 06:59:26;;;;;;;10.40;8.50;;;5.20;93.80;;;;;;5028485;28;20414;-84
2022/03/01 07:01:55;;;;;;;10.57;8.40;;;4.90;94.50;;;;;;5025377;28;20184;-82
2022/03/01 07:04:30;;;;;;;9.40;7.82;;;5.70;95.60;;;;;;5028422;28;20427;-84
2022/03/01 07:06:55;;;;;;;9.90;8.43;;;5.70;96.30;;;;;;5026308;28;20666;-81
2022/03/01 07:09:21;;;;;;;9.50;8.60;;;6.30;94.10;;;;;;5028159;28;20438;-80
2022/03/01 07:11:51;;;;;;;9.63;8.50;;;5.60;92.20;;;;;;5027532;28;20633;-82
2022/03/01 07:14:16;;;;;;;10.97;8.70;;;5.60;93.30;;;;;;5029164;28;20603;-84
2022/03/01 07:16:45;;;;;;;12.10;8.60;;;5.70;92.80;;;;;;5028618;28;20589;-83
2022/03/01 07:19:10;;;;;;;9.33;8.33;;;5.90;92.10;;;;;;5029459;28;20184;-83
2022/03/01 07:21:36;;;;;;;12.80;8.23;;;5.80;91.30;;;;;;5028806;28;20445;-83
2022/03/01 07:24:02;;;;;;;12.07;8.70;;;6.00;90.90;;;;;;4674062;28;10000120;-83
2022/03/01 07:26:28;;;;;;;9.00;8.20;;;5.90;90.40;;;;;;5024708;28;20176;-82
2022/03/01 07:28:54;;;;;;;10.83;9.70;;;5.90;89.40;;;;;;5016606;28;20216;-81
2022/03/01 07:31:20;;;;;;;11.93;8.73;;;5.90;88.50;;;;;;5020002;28;20183;-82
2022/03/01 07:33:46;;;;;;;10.50;8.87;;;5.90;89.20;;;;;;4674608;28;10000528;-81
2022/03/01 07:36:12;;;;;;;9.00;8.17;;;8.20;90.30;;;;;;5015769;28;20191;-82
2022/03/01 07:38:37;;;;;;;11.27;8.37;;;5.60;85.40;;;;;;5023267;28;20638;-82
2022/03/01 07:41:06;;;;;;;10.70;8.40;;;6.40;83.10;;;;;;5022264;28;20184;-82
2022/03/01 07:43:32;;;;;;;10.20;8.70;;;5.80;79.70;;;;;;5022427;28;20190;-83
2022/03/01 07:45:58;;;;;;;9.93;8.07;;;6.70;79.40;;;;;;5024033;28;20435;-82
2022/03/01 07:48:23;;;;;;;11.53;9.53;;;7.40;80.70;;;;;;5018668;28;20219;-82
2022/03/01 07:50:49;;;;;;;10.43;9.40;;;6.90;79.50;;;;;;5023813;28;20245;-84
2022/03/01 07:53:16;;;;;;;9.17;8.10;;;7.00;79.90;;;;;;5020888;28;20287;-83
2022/03/01 07:55:43;;;;;;;9.43;7.87;;;7.60;78.90;;;;;;5023772;28;20427;-82
2022/03/01 07:58:14;;;;;;;10.07;9.03;;;7.80;78.30;;;;;;5024884;28;20555;-82
2022/03/01 08:00:42;;;;;;;11.13;7.43;;;8.40;79.60;;;;;;5006237;28;20412;-83
2022/03/01 08:03:08;;;;;;;11.93;9.70;;;9.80;73.30;;;;;;5024675;28;20949;-83
2022/03/01 08:05:33;;;;;;;12.20;9.13;;;9.20;67.30;;;;;;5010193;28;20424;-85
2022/03/01 08:07:59;;;;;;;24.63;13.10;;;10.70;58.50;;;;;;5012884;28;20228;-83
2022/03/01 08:10:26;;;;;;;12.17;9.73;;;11.10;54.10;;;;;;4675399;28;10000678;-85
2022/03/01 08:12:51;;;;;;;14.10;8.97;;;11.20;50.70;;;;;;5025472;28;20179;-85
2022/03/01 08:15:17;;;;;;;10.60;9.60;;;12.60;49.10;;;;;;5023443;28;20447;-83
2022/03/01 08:17:51;;;;;;;8.97;8.10;;;11.60;45.80;;;;;;5022979;28;20192;-84
2022/03/01 08:20:17;;;;;;;9.77;8.87;;;11.10;44.60;;;;;;5020429;28;20539;-86
2022/03/01 08:22:43;;;;;;;13.77;8.90;;;11.00;44.90;;;;;;5015807;28;20454;-84
2022/03/01 08:25:09;;;;;;;12.43;9.47;;;10.70;43.10;;;;;;5021271;28;20667;-81
2022/03/01 08:27:35;;;;;;;8.53;7.90;;;9.90;43.40;;;;;;5022862;28;20298;-86
2022/03/01 08:30:00;;;;;;;8.93;7.70;;;10.10;42.90;;;;;;5020822;28;20462;-85
2022/03/01 08:32:26;;;;;;;8.27;7.47;;;10.00;43.30;;;;;;5024133;28;20218;-85
2022/03/01 08:34:53;;;;;;;9.90;8.30;;;9.90;43.80;;;;;;5022031;28;20577;-85
2022/03/01 08:37:18;;;;;;;7.07;6.37;;;10.10;42.70;;;;;;5040387;28;20301;-85
2022/03/01 08:39:44;;;;;;;9.70;7.50;;;11.00;43.00;;;;;;5021668;28;20447;-83
2022/03/01 08:42:10;;;;;;;8.30;7.37;;;10.90;42.00;;;;;;5026295;28;20385;-84
2022/03/01 08:44:35;;;;;;;9.97;8.33;;;11.20;40.40;;;;;;5025145;28;20329;-84
2022/03/01 08:47:01;;;;;;;8.30;7.30;;;11.70;40.30;;;;;;5025334;28;20172;-85
2022/03/01 08:49:27;;;;;;;11.37;7.63;;;12.00;39.40;;;;;;5024894;28;20219;-83
2022/03/01 08:51:56;;;;;;;9.33;7.80;;;13.10;41.40;;;;;;5027046;28;20167;-84
2022/03/01 08:54:23;;;;;;;8.87;8.13;;;12.50;38.70;;;;;;5023305;28;20860;-85
2022/03/01 08:56:49;;;;;;;7.83;7.03;;;12.20;38.20;;;;;;5025572;28;20708;-84
2022/03/01 08:59:15;;;;;;;9.30;8.30;;;12.10;37.60;;;;;;5025051;28;20477;-83
2022/03/01 09:01:40;;;;;;;10.00;8.10;;;11.90;39.00;;;;;;5022050;28;20439;-83
2022/03/01 09:04:12;;;;;;;8.30;7.53;;;12.20;37.40;;;;;;5018449;28;20955;-84
2022/03/01 09:06:38;;;;;;;10.77;9.03;;;12.00;37.10;;;;;;5031870;28;20192;-84
2022/03/01 09:09:04;;;;;;;10.80;8.53;;;11.90;37.70;;;;;;5018663;28;20609;-83
2022/03/01 09:11:30;;;;;;;8.77;7.97;;;11.80;37.20;;;;;;5026163;28;20253;-83
2022/03/01 09:13:56;;;;;;;9.27;8.37;;;11.80;36.60;;;;;;5024077;28;20871;-84
2022/03/01 09:16:21;;;;;;;9.53;7.77;;;12.00;36.70;;;;;;5026252;28;20825;-83
2022/03/01 09:18:47;;;;;;;9.83;6.67;;;12.20;36.40;;;;;;5024480;28;20263;-83
2022/03/01 09:21:13;;;;;;;12.50;7.17;;;12.10;35.70;;;;;;5023829;28;20185;-82
2022/03/01 09:23:40;;;;;;;7.53;6.83;;;11.60;35.90;;;;;;5023180;28;20903;-83
2022/03/01 09:26:06;;;;;;;10.47;7.57;;;12.30;37.10;;;;;;5025548;28;20433;-83
2022/03/01 09:28:32;;;;;;;8.40;7.60;;;10.90;36.70;;;;;;5023127;28;20478;-80
2022/03/01 09:30:57;;;;;;;6.63;6.10;;;10.70;36.90;;;;;;5025849;28;20171;-83
2022/03/01 09:33:23;;;;;;;8.77;6.60;;;9.70;37.40;;;;;;4674614;28;10000225;-84
2022/03/01 09:35:49;;;;;;;8.50;7.67;;;10.00;37.40;;;;;;5023821;28;20552;-84
2022/03/01 09:38:15;;;;;;;10.77;8.63;;;10.10;38.10;;;;;;5022143;28;20257;-83
2022/03/01 09:40:40;;;;;;;7.47;6.10;;;10.00;38.00;;;;;;5023162;28;20188;-84
2022/03/01 09:43:07;;;;;;;8.90;8.00;;;10.10;37.40;;;;;;5024069;28;20506;-87
2022/03/01 09:45:33;;;;;;;9.30;7.60;;;9.90;38.20;;;;;;5030907;28;20696;-82
2022/03/01 09:47:59;;;;;;;12.17;8.03;;;10.20;37.80;;;;;;5020182;28;20663;-84
2022/03/01 09:50:30;;;;;;;11.13;8.13;;;9.60;38.20;;;;;;5025419;28;20224;-85
2022/03/01 09:53:01;;;;;;;8.97;7.10;;;10.20;39.40;;;;;;5025844;28;20488;-83
2022/03/01 09:55:27;;;;;;;11.03;9.40;;;12.40;41.20;;;;;;5025588;28;20457;-82
2022/03/01 09:58:13;;;;;;;13.10;7.93;;;10.80;37.90;;;;;;5024655;28;20533;-83
2022/03/01 10:00:43;;;;;;;13.53;8.70;;;12.30;37.10;;;;;;5024846;28;20411;-83
2022/03/01 10:03:16;;;;;;;7.10;6.40;;;12.90;37.70;;;;;;5023910;28;20471;-83
2022/03/01 10:05:43;;;;;;;12.43;9.03;;;14.20;36.30;;;;;;5026354;28;20462;-84
2022/03/01 10:08:17;;;;;;;18.33;9.00;;;13.90;35.20;;;;;;5028583;28;20937;-84
2022/03/01 10:10:47;;;;;;;8.80;8.00;;;14.10;34.50;;;;;;5029811;28;20512;-84
2022/03/01 10:13:14;;;;;;;10.43;7.60;;;14.30;35.10;;;;;;5024655;28;20455;-83
2022/03/01 10:15:40;;;;;;;9.40;8.70;;;14.00;35.50;;;;;;5017508;28;21003;-84
2022/03/01 10:18:14;;;;;;;8.83;8.13;;;14.60;34.20;;;;;;5013404;28;20534;-83
2022/03/01 10:20:44;;;;;;;8.77;7.67;;;15.10;34.00;;;;;;5008245;28;20184;-84
2022/03/01 10:23:20;;;;;;;8.53;7.73;;;17.10;34.10;;;;;;5029915;28;20431;-84
2022/03/01 10:25:45;;;;;;;10.63;9.37;;;16.70;32.40;;;;;;5027108;28;20522;-84
2022/03/01 10:28:11;;;;;;;10.37;9.37;;;16.60;33.00;;;;;;5029744;28;20563;-86
2022/03/01 10:30:38;;;;;;;10.27;9.37;;;16.10;35.70;;;;;;5031057;28;20187;-86
2022/03/01 10:33:07;;;;;;;10.13;8.70;;;18.00;33.50;;;;;;5029549;28;20195;-83
2022/03/01 10:35:32;;;;;;;10.10;9.00;;;16.10;32.80;;;;;;5032190;28;20426;-85
2022/03/01 10:38:04;;;;;;;11.33;8.83;;;18.00;33.80;;;;;;4681271;28;9999815;-85
2022/03/01 10:40:30;;;;;;;8.87;6.63;;;16.80;34.20;;;;;;5010172;28;20173;-84
2022/03/01 10:43:10;;;;;;;9.13;8.30;;;14.50;31.80;;;;;;5026482;28;20447;-83
2022/03/01 10:45:48;;;;;;;9.40;8.57;;;14.20;32.30;;;;;;5024189;28;20438;-84
2022/03/01 10:48:31;;;;;;;9.53;8.50;;;14.50;32.70;;;;;;5026842;28;20552;-84
2022/03/01 10:51:07;;;;;;;9.13;8.20;;;14.90;32.90;;;;;;5008606;28;20504;-83
2022/03/01 10:53:41;;;;;;;10.40;9.40;;;15.00;32.10;;;;;;5011158;28;20434;-84
2022/03/01 10:56:09;;;;;;;8.10;7.40;;;15.70;32.70;;;;;;5024161;28;20467;-84
2022/03/01 10:58:36;;;;;;;10.80;9.17;;;18.10;33.00;;;;;;5020495;28;20438;-84
2022/03/01 11:01:04;;;;;;;8.90;8.13;;;14.10;30.30;;;;;;5027816;28;20450;-83
2022/03/01 11:03:35;;;;;;;8.83;8.00;;;14.30;32.00;;;;;;5027791;28;20439;-85
2022/03/01 11:06:16;;;;;;;9.80;8.90;;;12.60;34.60;;;;;;5025844;28;20479;-84
2022/03/01 11:08:50;;;;;;;10.40;8.23;;;13.80;32.50;;;;;;5030341;28;20963;-83
2022/03/01 11:11:41;;;;;;;12.00;8.83;;;14.80;33.70;;;;;;5021829;23;20494;-87
2022/03/01 11:14:10;;;;;;;10.70;8.83;;;14.80;33.50;;;;;;5020157;28;20864;-91
2022/03/01 11:17:20;;;;;;;11.50;9.63;;;13.00;32.40;;;;;;5018780;28;20497;-87
2022/03/01 11:20:06;;;;;;;10.10;9.10;;;13.00;32.30;;;;;;5000336;28;20859;-90
2022/03/01 11:22:46;;;;;;;8.20;7.50;;;13.70;32.80;;;;;;5015927;28;20532;-89
2022/03/01 11:25:37;;;;;;;9.90;8.80;;;12.80;31.70;;;;;;5018696;28;20509;-86
2022/03/01 11:28:08;;;;;;;10.27;8.70;;;12.70;34.30;;;;;;5037455;28;20490;-89
2022/03/01 11:30:44;;;;;;;10.00;8.60;;;14.00;34.40;;;;;;5036917;28;20482;-89
2022/03/01 11:33:10;;;;;;;11.73;8.80;;;14.30;34.50;;;;;;5031259;23;20483;-80
2022/03/01 11:35:43;;;;;;;8.80;7.77;;;13.40;32.60;;;;;;5007804;28;20428;-80
2022/03/01 11:38:14;;;;;;;8.43;7.77;;;13.40;32.50;;;;;;5004253;28;20440;-80
2022/03/01 11:40:52;;;;;;;11.50;8.67;;;14.00;32.30;;;;;;5007714;28;20420;-82
2022/03/01 11:43:24;;;;;;;8.70;7.53;;;14.00;31.60;;;;;;5019537;28;20524;-81
2022/03/01 11:45:53;;;;;;;9.07;8.17;;;15.10;31.70;;;;;;5006749;28;20511;-81
2022/03/01 11:48:21;;;;;;;8.60;7.70;;;15.60;31.00;;;;;;5004224;28;20514;-82
2022/03/01 11:51:06;;;;;;;10.80;8.40;;;15.90;30.90;;;;;;5007135;28;20918;-82
2022/03/01 11:53:41;;;;;;;9.07;8.17;;;15.60;30.80;;;;;;5015714;28;20563;-80
2022/03/01 11:56:09;;;;;;;9.77;7.63;;;15.30;30.80;;;;;;5006083;28;20772;-80
2022/03/01 11:58:38;;;;;;;9.97;9.00;;;14.80;30.30;;;;;;5003833;28;20556;-79
2022/03/01 12:01:09;;;;;;;9.27;8.50;;;14.70;30.80;;;;;;5006797;28;20774;-79
2022/03/01 12:03:39;;;;;;;8.23;6.80;;;15.90;31.90;;;;;;5005034;28;20935;-79
2022/03/01 12:06:06;;;;;;;8.37;7.00;;;13.90;31.20;;;;;;5021450;28;20427;-79
2022/03/01 12:08:32;;;;;;;7.67;6.97;;;13.40;31.80;;;;;;5004897;28;20829;-79
2022/03/01 12:11:06;;;;;;;10.93;7.90;;;12.40;32.10;;;;;;5004246;28;20463;-77
2022/03/01 12:13:46;;;;;;;10.50;8.30;;;12.80;32.30;;;;;;4998380;28;20498;-80
2022/03/01 12:16:24;;;;;;;9.07;8.13;;;12.90;32.40;;;;;;4998038;28;20455;-79
2022/03/01 12:18:50;;;;;;;8.87;7.53;;;12.60;32.70;;;;;;5004349;28;20478;-81
2022/03/01 12:21:16;;;;;;;10.33;8.40;;;12.60;32.80;;;;;;5007585;28;20460;-79
2022/03/01 12:23:44;;;;;;;9.10;8.00;;;13.00;32.30;;;;;;5005091;28;20188;-79
2022/03/01 12:26:13;;;;;;;9.50;7.40;;;13.00;32.60;;;;;;5005432;28;20181;-78
2022/03/01 12:28:51;;;;;;;9.90;7.87;;;12.90;32.70;;;;;;4998814;28;20497;-80
2022/03/01 12:31:21;;;;;;;10.47;7.60;;;13.00;32.90;;;;;;4996122;28;20420;-79
2022/03/01 12:33:52;;;;;;;10.88;8.80;;;14.10;33.50;;;;;;4655941;28;10000526;-80
2022/03/01 12:36:34;;;;;;;8.57;7.67;;;13.50;32.90;;;;;;5003200;28;20181;-79
2022/03/01 12:39:12;;;;;;;11.23;9.40;;;13.40;32.60;;;;;;5001954;28;20539;-79
2022/03/01 12:41:39;;;;;;;8.43;7.63;;;13.20;32.70;;;;;;5002329;28;20538;-80
2022/03/01 12:44:08;;;;;;;12.30;7.90;;;12.90;33.10;;;;;;4999634;28;20965;-78
2022/03/01 12:46:35;;;;;;;12.77;8.53;;;13.00;33.10;;;;;;5002711;28;20496;-76
2022/03/01 12:49:04;;;;;;;10.90;8.20;;;12.50;33.10;;;;;;5001373;28;20531;-79
2022/03/01 12:51:30;;;;;;;11.53;8.37;;;13.10;33.50;;;;;;5003446;28;20843;-79
2022/03/01 12:54:12;;;;;;;9.70;8.60;;;12.70;33.10;;;;;;5000851;28;20450;-78
2022/03/01 12:56:40;;;;;;;11.00;9.43;;;12.50;32.90;;;;;;5002603;28;20415;-79
2022/03/01 12:59:18;;;;;;;9.60;7.90;;;12.70;33.20;;;;;;5001121;28;20443;-79
2022/03/01 13:01:47;;;;;;;8.10;7.27;;;13.30;33.60;;;;;;4995318;28;20514;-79
2022/03/01 13:04:14;;;;;;;9.57;8.67;;;14.40;33.90;;;;;;4995103;28;20433;-77
2022/03/01 13:06:40;;;;;;;8.93;8.10;;;13.60;33.40;;;;;;4999576;28;20471;-79
2022/03/01 13:09:07;;;;;;;8.80;7.70;;;13.70;33.10;;;;;;5000079;28;20540;-79
2022/03/01 13:11:34;;;;;;;9.60;8.60;;;13.70;33.20;;;;;;4999037;28;20566;-80
2022/03/01 13:14:08;;;;;;;10.00;8.73;;;13.20;32.90;;;;;;5003163;28;20419;-82